createdAt,value
2019-03-19T00:00:20.312Z,8.43
2019-03-19T00:02:49.487Z,7.95
2019-03-19T00:05:18.814Z,8.13
2019-03-19T00:07:48.074Z,8.23
2019-03-19T00:10:17.681Z,9.00
2019-03-19T00:12:47.067Z,8.80
2019-03-19T00:15:16.344Z,9.05
2019-03-19T00:17:45.764Z,9.48
2019-03-19T00:20:15.941Z,8.40
2019-03-19T00:22:45.253Z,10.98
2019-03-19T00:25:14.602Z,8.70
2019-03-19T00:27:43.983Z,9.03
2019-03-19T00:30:15.710Z,9.25
2019-03-19T00:32:44.949Z,9.18
2019-03-19T00:35:14.445Z,8.85
2019-03-19T00:37:43.704Z,9.33
2019-03-19T00:40:14.106Z,9.58
2019-03-19T00:42:43.517Z,9.25
2019-03-19T00:45:13.814Z,9.48
2019-03-19T00:47:43.212Z,10.28
2019-03-19T00:50:16.011Z,8.43
2019-03-19T00:52:51.037Z,10.18
2019-03-19T01:06:57.711Z,11.05
2019-03-19T01:09:26.944Z,9.00
2019-03-19T01:11:56.187Z,10.90
2019-03-19T01:14:25.517Z,9.08
2019-03-19T01:16:54.658Z,10.10
2019-03-19T01:19:23.835Z,9.18
2019-03-19T01:21:53.066Z,10.55
2019-03-19T01:24:22.301Z,9.00
2019-03-19T01:26:51.468Z,9.45
2019-03-19T01:29:21.851Z,9.00
2019-03-19T01:31:51.036Z,9.48
2019-03-19T01:34:20.357Z,9.10
2019-03-19T01:36:49.593Z,9.70
2019-03-19T01:39:18.675Z,9.03
2019-03-19T01:41:47.850Z,9.50
2019-03-19T01:44:17.088Z,8.83
2019-03-19T01:46:46.254Z,8.75
2019-03-19T01:49:15.434Z,10.08
2019-03-19T01:51:44.651Z,8.95
2019-03-19T01:54:13.891Z,8.90
2019-03-19T01:56:43.068Z,9.28
2019-03-19T01:59:12.747Z,8.73
2019-03-19T02:01:41.912Z,8.58
2019-03-19T02:04:11.156Z,9.58
2019-03-19T02:06:40.370Z,8.13
2019-03-19T02:09:10.111Z,9.20
2019-03-19T02:11:39.289Z,9.33
2019-03-19T02:14:08.491Z,10.63
2019-03-19T02:16:37.663Z,8.75
2019-03-19T02:19:06.880Z,9.18
2019-03-19T02:21:36.042Z,8.88
2019-03-19T02:24:05.288Z,9.30
2019-03-19T02:26:34.494Z,8.75
2019-03-19T02:29:03.744Z,9.00
2019-03-19T02:31:32.939Z,8.50
2019-03-19T02:34:02.109Z,8.93
2019-03-19T02:36:31.317Z,9.28
2019-03-19T02:39:00.591Z,9.30
2019-03-19T02:41:29.750Z,8.25
2019-03-19T02:43:58.947Z,8.30
2019-03-19T02:46:28.120Z,11.38
2019-03-19T02:48:57.324Z,7.97
2019-03-19T02:51:26.484Z,8.40
2019-03-19T02:53:55.759Z,8.23
2019-03-19T02:56:32.477Z,8.45
2019-03-19T02:58:55.922Z,8.40
2019-03-19T03:01:25.174Z,7.87
2019-03-19T03:03:54.308Z,8.55
2019-03-19T03:06:23.548Z,9.43
2019-03-19T03:08:52.922Z,8.73
2019-03-19T03:11:22.093Z,8.63
2019-03-19T03:13:51.265Z,8.08
2019-03-19T03:16:20.640Z,8.73
2019-03-19T03:18:50.282Z,8.25
2019-03-19T03:21:19.431Z,8.60
2019-03-19T03:23:48.659Z,8.08
2019-03-19T03:26:17.973Z,7.60
2019-03-19T03:28:47.220Z,8.25
2019-03-19T03:31:16.431Z,8.08
2019-03-19T03:33:45.595Z,7.78
2019-03-19T03:36:14.829Z,8.10
2019-03-19T03:38:44.025Z,7.90
2019-03-19T03:41:13.205Z,8.48
2019-03-19T03:43:42.400Z,8.60
2019-03-19T03:46:11.690Z,9.05
2019-03-19T03:48:40.934Z,8.50
2019-03-19T03:51:10.179Z,8.73
2019-03-19T03:53:39.385Z,8.18
2019-03-19T03:56:08.542Z,8.43
2019-03-19T03:58:37.744Z,8.53
2019-03-19T04:01:07.051Z,8.95
2019-03-19T04:03:36.206Z,9.03
2019-03-19T04:06:05.827Z,8.25
2019-03-19T04:08:35.049Z,8.80
2019-03-19T04:11:04.218Z,9.10
2019-03-19T04:13:33.384Z,8.93
2019-03-19T04:16:02.579Z,7.97
2019-03-19T04:18:31.858Z,9.23
2019-03-19T04:21:01.042Z,7.78
2019-03-19T04:23:30.248Z,9.13
2019-03-19T04:25:59.466Z,9.23
2019-03-19T04:28:28.629Z,8.73
2019-03-19T04:30:57.861Z,8.00
2019-03-19T04:33:27.038Z,9.30
2019-03-19T04:35:56.238Z,10.65
2019-03-19T04:38:25.540Z,10.80
2019-03-19T04:40:54.796Z,10.82
2019-03-19T04:43:23.954Z,10.72
2019-03-19T04:45:53.222Z,9.75
2019-03-19T04:48:22.427Z,9.60
2019-03-19T04:50:51.606Z,9.50
2019-03-19T04:53:20.773Z,9.58
2019-03-19T04:55:50.165Z,9.55
2019-03-19T04:58:19.405Z,8.33
2019-03-19T05:00:48.764Z,8.65
2019-03-19T05:03:18.018Z,8.15
2019-03-19T05:05:47.395Z,8.33
2019-03-19T05:08:16.693Z,8.58
2019-03-19T05:10:45.870Z,8.88
2019-03-19T05:13:15.226Z,8.05
2019-03-19T05:15:44.442Z,8.40
2019-03-19T05:18:13.735Z,8.10
2019-03-19T05:20:42.963Z,7.83
2019-03-19T05:23:12.275Z,7.35
2019-03-19T05:25:41.529Z,6.78
2019-03-19T05:28:10.825Z,6.78
2019-03-19T05:30:40.225Z,6.72
2019-03-19T05:33:09.541Z,6.08
2019-03-19T05:35:38.786Z,6.67
2019-03-19T05:38:08.167Z,6.28
2019-03-19T05:40:37.510Z,6.95
2019-03-19T05:43:06.927Z,7.10
2019-03-19T05:45:37.865Z,7.65
2019-03-19T05:48:07.116Z,8.38
2019-03-19T05:50:36.492Z,7.80
2019-03-19T05:53:05.677Z,8.55
2019-03-19T05:55:35.038Z,8.10
2019-03-19T05:58:04.364Z,8.53
2019-03-19T06:00:35.193Z,7.95
2019-03-19T06:03:04.802Z,8.83
2019-03-19T06:05:34.095Z,7.97
2019-03-19T06:08:03.458Z,8.90
2019-03-19T06:10:32.799Z,8.60
2019-03-19T06:13:02.130Z,7.85
2019-03-19T06:15:31.479Z,7.37
2019-03-19T06:18:00.814Z,6.83
2019-03-19T06:20:30.237Z,6.70
2019-03-19T06:22:59.671Z,6.80
2019-03-19T06:25:28.943Z,6.55
2019-03-19T06:28:00.659Z,6.28
2019-03-19T06:30:29.275Z,7.00
2019-03-19T06:32:58.643Z,6.40
2019-03-19T06:35:36.504Z,6.42
2019-03-19T06:38:05.798Z,7.45
2019-03-19T06:40:35.132Z,6.37
2019-03-19T06:43:04.630Z,6.50
2019-03-19T06:45:33.837Z,6.97
2019-03-19T06:48:03.140Z,6.65
2019-03-19T06:50:32.459Z,5.97
2019-03-19T06:53:02.099Z,5.80
2019-03-19T06:55:31.431Z,8.98
2019-03-19T06:58:10.477Z,7.00
2019-03-19T07:00:32.570Z,6.12
2019-03-19T07:03:02.151Z,5.72
2019-03-19T07:05:31.637Z,6.10
2019-03-19T07:08:01.063Z,7.30
2019-03-19T07:10:31.155Z,5.45
2019-03-19T07:13:00.649Z,5.62
2019-03-19T07:15:29.902Z,7.85
2019-03-19T07:17:59.700Z,6.00
2019-03-19T07:20:29.645Z,5.83
2019-03-19T07:22:58.982Z,7.10
2019-03-19T07:25:28.371Z,5.53
2019-03-19T07:27:57.651Z,5.53
2019-03-19T07:30:27.636Z,5.65
2019-03-19T07:32:56.992Z,5.40
2019-03-19T07:35:26.227Z,5.42
2019-03-19T07:37:55.555Z,5.95
2019-03-19T07:40:25.094Z,5.70
2019-03-19T07:42:54.413Z,6.12
2019-03-19T07:45:26.603Z,5.20
2019-03-19T07:50:24.970Z,4.33
2019-03-19T07:52:54.365Z,4.75
2019-03-19T07:55:23.825Z,4.80
2019-03-19T07:57:53.087Z,4.65
2019-03-19T08:00:22.886Z,4.83
2019-03-19T08:02:52.223Z,5.62
2019-03-19T08:05:32.283Z,5.45
2019-03-19T08:07:52.607Z,5.10
2019-03-19T08:10:22.094Z,5.37
2019-03-19T08:12:51.276Z,5.30
2019-03-19T08:15:21.400Z,5.10
2019-03-19T08:17:50.607Z,5.20
2019-03-19T08:20:19.952Z,5.33
2019-03-19T08:22:49.230Z,5.25
2019-03-19T08:25:18.472Z,5.30
2019-03-19T08:27:47.730Z,5.72
2019-03-19T08:30:29.131Z,6.10
2019-03-19T08:32:58.454Z,5.30
2019-03-19T08:35:27.903Z,5.42
2019-03-19T08:37:57.186Z,5.83
2019-03-19T08:40:26.488Z,5.92
2019-03-19T08:42:58.105Z,6.10
2019-03-19T08:45:27.372Z,5.87
2019-03-19T08:47:56.561Z,5.80
2019-03-19T08:50:25.951Z,5.95
2019-03-19T08:52:55.750Z,5.83
2019-03-19T08:55:25.315Z,5.87
2019-03-19T08:57:54.618Z,6.62
2019-03-19T09:00:26.298Z,5.42
2019-03-19T09:02:55.733Z,5.35
2019-03-19T09:05:25.155Z,6.28
2019-03-19T09:07:54.342Z,5.58
2019-03-19T09:10:23.786Z,5.20
2019-03-19T09:12:53.077Z,5.10
2019-03-19T09:15:28.216Z,5.25
2019-03-19T09:17:57.418Z,5.28
2019-03-19T09:20:26.732Z,5.35
2019-03-19T09:22:56.114Z,5.40
2019-03-19T09:25:25.391Z,5.37
2019-03-19T09:27:54.701Z,5.95
2019-03-19T09:30:24.812Z,5.47
2019-03-19T09:32:54.060Z,5.50
2019-03-19T09:35:23.418Z,5.60
2019-03-19T09:37:58.430Z,5.60
2019-03-19T09:40:23.674Z,6.22
2019-03-19T09:42:53.064Z,5.92
2019-03-19T09:45:22.386Z,6.42
2019-03-19T09:47:51.755Z,5.60
2019-03-19T09:50:23.309Z,6.10
2019-03-19T09:52:52.746Z,5.87
2019-03-19T09:55:21.986Z,5.55
2019-03-19T09:57:51.335Z,5.55
2019-03-19T10:00:21.527Z,5.03
2019-03-19T10:02:50.770Z,5.37
2019-03-19T10:05:20.040Z,4.20
2019-03-19T10:07:49.349Z,4.20
2019-03-19T10:10:20.718Z,4.58
2019-03-19T10:12:49.902Z,5.20
2019-03-19T10:15:19.338Z,5.15
2019-03-19T10:17:48.616Z,5.70
2019-03-19T10:20:25.743Z,5.15
2019-03-19T10:22:55.157Z,4.30
2019-03-19T10:25:24.501Z,4.70
2019-03-19T10:27:53.911Z,4.20
2019-03-19T10:30:23.918Z,4.30
2019-03-19T10:32:53.278Z,4.53
2019-03-19T10:35:22.531Z,4.10
2019-03-19T10:37:51.711Z,4.45
2019-03-19T10:40:21.731Z,4.40
2019-03-19T10:42:51.092Z,4.30
2019-03-19T10:45:21.736Z,4.33
2019-03-19T10:47:51.052Z,4.40
2019-03-19T10:50:21.420Z,7.22
2019-03-19T10:52:50.739Z,4.17
2019-03-19T10:55:20.076Z,4.00
2019-03-19T10:57:49.443Z,4.40
2019-03-19T11:00:23.309Z,3.87
2019-03-19T11:02:52.852Z,3.42
2019-03-19T11:05:26.710Z,3.70
2019-03-19T11:07:55.972Z,3.70
2019-03-19T11:10:25.243Z,3.30
2019-03-19T11:12:54.601Z,3.42
2019-03-19T11:15:28.641Z,3.60
2019-03-19T11:17:58.031Z,3.27
2019-03-19T11:20:27.264Z,3.15
2019-03-19T11:22:56.559Z,3.25
2019-03-19T11:28:31.067Z,3.60
2019-03-19T11:31:00.244Z,3.22
2019-03-19T11:33:29.508Z,3.60
2019-03-19T11:35:58.950Z,3.20
2019-03-19T11:38:28.200Z,2.80
2019-03-19T11:40:57.448Z,3.40
2019-03-19T11:43:26.760Z,3.67
2019-03-19T11:45:55.925Z,3.40
2019-03-19T11:48:25.172Z,3.75
2019-03-19T11:50:54.495Z,3.65
2019-03-19T11:53:23.741Z,3.25
2019-03-19T11:55:52.913Z,3.70
2019-03-19T11:58:22.116Z,4.53
2019-03-19T12:00:52.981Z,3.40
2019-03-19T12:03:22.236Z,3.62
2019-03-19T12:05:51.429Z,3.95
2019-03-19T12:08:20.658Z,3.30
2019-03-19T12:10:49.835Z,3.58
2019-03-19T12:13:19.092Z,3.60
2019-03-19T12:15:48.277Z,3.75
2019-03-19T12:18:17.464Z,3.67
2019-03-19T12:20:46.844Z,3.70
2019-03-19T12:23:16.096Z,3.52
2019-03-19T12:25:45.277Z,3.30
2019-03-19T12:28:14.547Z,3.67
2019-03-19T12:30:43.865Z,4.03
2019-03-19T12:33:13.048Z,4.30
2019-03-19T12:35:42.326Z,3.58
2019-03-19T12:38:11.496Z,3.08
2019-03-19T12:40:40.790Z,3.00
2019-03-19T12:43:10.029Z,2.92
2019-03-19T12:45:39.337Z,3.40
2019-03-19T12:48:08.518Z,3.45
2019-03-19T12:50:37.708Z,3.95
2019-03-19T12:53:07.293Z,3.87
2019-03-19T12:55:36.628Z,4.42
2019-03-19T12:58:25.252Z,4.05
2019-03-19T13:00:54.489Z,4.70
2019-03-19T13:03:23.743Z,5.08
2019-03-19T13:05:52.983Z,5.83
2019-03-19T13:08:22.402Z,5.72
2019-03-19T13:10:51.612Z,5.35
2019-03-19T13:13:20.872Z,5.22
2019-03-19T13:15:50.315Z,4.62
2019-03-19T13:18:19.571Z,4.50
2019-03-19T13:20:48.743Z,4.40
2019-03-19T13:23:17.975Z,4.70
2019-03-19T13:25:47.234Z,4.78
2019-03-19T13:28:16.412Z,4.87
2019-03-19T13:30:45.715Z,5.10
2019-03-19T13:33:14.901Z,5.17
2019-03-19T13:35:44.089Z,4.70
2019-03-19T13:38:13.288Z,4.97
2019-03-19T13:40:42.463Z,4.90
2019-03-19T13:43:11.746Z,5.05
2019-03-19T13:45:40.928Z,4.55
2019-03-19T13:48:10.224Z,4.00
2019-03-19T13:50:39.419Z,4.78
2019-03-19T13:53:08.663Z,4.22
2019-03-19T13:55:49.579Z,4.12
2019-03-19T13:58:28.276Z,4.80
2019-03-19T14:01:01.081Z,5.20
2019-03-19T14:03:31.679Z,4.70
2019-03-19T14:06:01.584Z,5.15
2019-03-19T14:08:30.932Z,5.53
2019-03-19T14:11:00.120Z,5.17
2019-03-19T14:13:29.328Z,5.87
2019-03-19T14:15:58.532Z,5.15
2019-03-19T14:18:27.725Z,5.55
2019-03-19T14:20:57.196Z,6.75
2019-03-19T14:23:26.900Z,5.00
2019-03-19T14:25:56.152Z,5.92
2019-03-19T14:28:25.361Z,6.70
2019-03-19T14:30:54.746Z,5.33
2019-03-19T14:33:24.062Z,6.03
2019-03-19T14:35:53.310Z,5.55
2019-03-19T14:38:22.645Z,6.25
2019-03-19T14:40:52.041Z,6.17
2019-03-19T14:43:21.255Z,5.95
2019-03-19T14:46:00.491Z,7.47
2019-03-19T14:48:29.749Z,6.53
2019-03-19T14:51:15.356Z,6.62
2019-03-19T14:53:59.790Z,6.65
2019-03-19T14:56:29.139Z,6.45
2019-03-19T14:58:58.380Z,6.85
2019-03-19T15:01:27.672Z,6.67
2019-03-19T15:03:56.915Z,6.58
2019-03-19T15:06:26.276Z,6.50
2019-03-19T15:08:55.530Z,6.25
2019-03-19T15:11:24.802Z,6.37
2019-03-19T15:13:55.253Z,6.80
2019-03-19T15:16:24.764Z,6.70
2019-03-19T15:18:54.033Z,8.93
2019-03-19T15:21:23.338Z,7.33
2019-03-19T15:23:52.593Z,7.83
2019-03-19T15:26:21.849Z,10.28
2019-03-19T15:28:51.296Z,8.13
2019-03-19T15:31:29.547Z,8.93
2019-03-19T15:33:51.476Z,9.70
2019-03-19T15:36:20.683Z,8.18
2019-03-19T15:38:49.954Z,7.35
2019-03-19T15:41:19.269Z,8.55
2019-03-19T15:43:48.530Z,7.12
2019-03-19T15:46:17.943Z,6.60
2019-03-19T15:48:48.560Z,6.50
2019-03-19T15:51:17.927Z,6.78
2019-03-19T15:53:47.239Z,7.55
2019-03-19T15:56:16.501Z,7.22
2019-03-19T15:58:45.807Z,6.60
2019-03-19T16:01:16.983Z,7.53
2019-03-19T16:03:45.975Z,8.30
2019-03-19T16:06:15.322Z,11.80
2019-03-19T16:08:44.726Z,11.15
2019-03-19T16:11:13.984Z,11.73
2019-03-19T16:13:43.324Z,9.63
2019-03-19T16:16:12.706Z,10.05
2019-03-19T16:18:42.054Z,11.03
2019-03-19T16:21:11.362Z,10.98
2019-03-19T16:23:40.744Z,9.95
2019-03-19T16:26:09.936Z,10.23
2019-03-19T16:28:39.112Z,10.10
2019-03-19T16:31:08.386Z,10.48
2019-03-19T16:33:37.644Z,11.20
2019-03-19T16:36:07.030Z,11.45
2019-03-19T16:38:36.600Z,12.15
2019-03-19T16:41:05.802Z,10.78
2019-03-19T16:43:35.104Z,11.78
2019-03-19T16:46:04.287Z,11.60
2019-03-19T16:48:33.532Z,12.95
2019-03-19T16:51:02.759Z,13.80
2019-03-19T16:53:32.046Z,14.35
2019-03-19T16:56:01.308Z,15.03
2019-03-19T16:58:30.638Z,16.50
2019-03-19T17:01:00.093Z,17.00
2019-03-19T17:03:29.352Z,16.62
2019-03-19T17:05:58.723Z,18.42
2019-03-19T17:08:27.983Z,19.40
2019-03-19T17:10:57.312Z,23.00
2019-03-19T17:13:26.685Z,28.12
2019-03-19T17:15:55.994Z,28.70
2019-03-19T17:18:25.324Z,26.68
2019-03-19T17:20:54.677Z,23.70
2019-03-19T17:23:23.946Z,19.40
2019-03-19T17:25:53.244Z,23.60
2019-03-19T17:28:22.932Z,17.45
2019-03-19T17:30:52.302Z,20.82
2019-03-19T17:33:21.512Z,17.57
2019-03-19T17:35:50.804Z,16.23
2019-03-19T17:38:20.020Z,15.05
2019-03-19T17:40:49.407Z,11.53
2019-03-19T17:43:18.666Z,13.15
2019-03-19T17:45:47.945Z,12.03
2019-03-19T17:48:17.271Z,15.38
2019-03-19T17:50:50.204Z,27.55
2019-03-19T17:53:19.450Z,25.95
2019-03-19T17:55:48.703Z,26.57
2019-03-19T17:58:17.945Z,30.85
2019-03-19T18:00:51.884Z,25.15
2019-03-19T18:03:21.211Z,21.48
2019-03-19T18:05:50.414Z,19.25
2019-03-19T18:08:19.713Z,21.75
2019-03-19T18:10:48.966Z,23.75
2019-03-19T18:13:18.291Z,19.20
2019-03-19T18:15:47.624Z,23.32
2019-03-19T18:18:16.898Z,28.47
2019-03-19T18:20:58.478Z,28.02
2019-03-19T18:23:29.521Z,28.67
2019-03-19T18:25:58.894Z,29.80
2019-03-19T18:28:29.710Z,27.15
2019-03-19T18:30:58.909Z,30.05
2019-03-19T18:33:28.398Z,33.38
2019-03-19T18:35:57.651Z,36.20
2019-03-19T18:38:26.973Z,38.65
2019-03-19T18:40:56.240Z,38.92
2019-03-19T18:43:25.575Z,40.73
2019-03-19T18:45:57.053Z,42.05
2019-03-19T18:48:25.891Z,42.48
2019-03-19T18:50:55.160Z,45.03
2019-03-19T18:53:24.477Z,39.67
2019-03-19T18:55:53.752Z,41.90
2019-03-19T18:58:23.004Z,38.92
2019-03-19T19:00:52.642Z,37.75
2019-03-19T19:03:21.963Z,38.50
2019-03-19T19:05:51.305Z,41.68
2019-03-19T19:08:20.635Z,43.40
2019-03-19T19:10:49.826Z,38.42
2019-03-19T19:13:19.159Z,36.73
2019-03-19T19:15:49.927Z,30.48
2019-03-19T19:18:19.192Z,28.25
2019-03-19T19:20:48.435Z,26.17
2019-03-19T19:23:17.863Z,24.82
2019-03-19T19:25:47.362Z,25.37
2019-03-19T19:28:17.210Z,24.85
2019-03-19T19:30:46.390Z,25.75
2019-03-19T19:33:16.710Z,24.98
2019-03-19T19:35:45.941Z,24.05
2019-03-19T19:38:15.119Z,24.72
2019-03-19T19:40:44.374Z,22.37
2019-03-19T19:43:13.725Z,21.73
2019-03-19T19:45:43.181Z,22.80
2019-03-19T19:48:12.482Z,22.13
2019-03-19T19:50:41.803Z,22.70
2019-03-19T19:53:11.072Z,24.70
2019-03-19T19:55:40.414Z,26.05
2019-03-19T19:58:09.676Z,25.70
2019-03-19T20:00:39.026Z,27.02
2019-03-19T20:03:12.544Z,32.10
2019-03-19T20:05:39.519Z,35.08
2019-03-19T20:08:08.766Z,34.05
2019-03-19T20:10:37.962Z,35.38
2019-03-19T20:13:07.610Z,38.42
2019-03-19T20:15:37.003Z,38.08
2019-03-19T20:18:06.333Z,39.03
2019-03-19T20:20:35.758Z,37.85
2019-03-19T20:23:05.101Z,35.05
2019-03-19T20:25:34.391Z,35.17
2019-03-19T20:28:03.675Z,34.25
2019-03-19T20:30:33.002Z,31.25
2019-03-19T20:33:02.334Z,32.25
2019-03-19T20:35:31.643Z,31.73
2019-03-19T20:38:00.909Z,34.33
2019-03-19T20:40:30.474Z,39.90
2019-03-19T20:42:59.787Z,43.95
2019-03-19T20:45:29.273Z,39.03
2019-03-19T20:47:58.478Z,35.25
2019-03-19T20:50:35.442Z,31.70
2019-03-19T20:53:04.717Z,29.87
2019-03-19T20:55:34.028Z,31.87
2019-03-19T20:58:03.414Z,29.72
2019-03-19T21:00:32.596Z,28.92
2019-03-19T21:03:02.020Z,34.67
2019-03-19T21:05:31.363Z,33.15
2019-03-19T21:08:01.048Z,37.83
2019-03-19T21:10:30.312Z,41.48
2019-03-19T21:12:59.574Z,39.20
2019-03-19T21:15:30.248Z,51.18
2019-03-19T21:17:59.756Z,57.70
2019-03-19T21:20:29.123Z,47.20
2019-03-19T21:22:58.378Z,45.43
2019-03-19T21:25:41.266Z,38.65
2019-03-19T21:28:14.429Z,39.42
2019-03-19T21:30:43.127Z,35.92
2019-03-19T21:33:12.445Z,31.68
2019-03-19T21:35:41.626Z,30.90
2019-03-19T21:38:10.914Z,28.17
2019-03-19T21:40:40.093Z,26.97
2019-03-19T21:43:09.418Z,24.47
2019-03-19T21:45:38.722Z,24.65
2019-03-19T21:48:07.972Z,23.98
2019-03-19T21:50:37.159Z,23.92
2019-03-19T21:53:06.449Z,23.05
2019-03-19T21:55:35.713Z,22.10
2019-03-19T21:58:05.044Z,21.42
2019-03-19T22:00:34.387Z,21.15
2019-03-19T22:03:03.742Z,29.10
2019-03-19T22:05:32.980Z,25.85
2019-03-19T22:08:02.248Z,26.05
2019-03-19T22:10:31.492Z,26.77
2019-03-19T22:13:00.763Z,25.00
2019-03-19T22:15:30.185Z,26.85
2019-03-19T22:17:59.453Z,31.25
2019-03-19T22:20:30.341Z,31.00
2019-03-19T22:22:59.692Z,33.67
2019-03-19T22:25:29.333Z,37.63
2019-03-19T22:27:58.592Z,35.83
2019-03-19T22:30:27.862Z,33.00
2019-03-19T22:32:57.272Z,33.80
2019-03-19T22:35:26.537Z,33.60
2019-03-19T22:37:55.831Z,31.57
2019-03-19T22:40:25.156Z,27.60
2019-03-19T22:42:54.542Z,30.10
2019-03-19T22:45:23.941Z,32.25
2019-03-19T22:47:53.194Z,31.65
2019-03-19T22:50:22.507Z,27.20
2019-03-19T22:52:52.191Z,28.42
2019-03-19T22:55:29.059Z,25.70
2019-03-19T22:57:52.892Z,26.07
2019-03-19T23:00:33.895Z,21.52
2019-03-19T23:03:03.161Z,21.27
2019-03-19T23:05:32.429Z,21.37
2019-03-19T23:08:02.159Z,20.12
2019-03-19T23:10:31.419Z,20.85
2019-03-19T23:13:00.776Z,20.20
2019-03-19T23:15:30.108Z,20.77
2019-03-19T23:17:59.465Z,21.27
2019-03-19T23:20:28.921Z,27.73
2019-03-19T23:22:58.183Z,30.32
2019-03-19T23:25:27.573Z,33.63
2019-03-19T23:27:56.830Z,26.37
2019-03-19T23:30:26.281Z,29.27
2019-03-19T23:32:55.577Z,31.62
2019-03-19T23:35:24.908Z,26.52
2019-03-19T23:37:54.232Z,27.60
2019-03-19T23:40:23.493Z,27.05
2019-03-19T23:42:52.884Z,26.33
2019-03-19T23:45:22.241Z,24.47
2019-03-19T23:47:51.507Z,20.75
2019-03-19T23:50:21.121Z,21.73
2019-03-19T23:52:50.563Z,19.85
2019-03-19T23:55:19.892Z,19.42
2019-03-19T23:57:49.308Z,19.42
